sensor_id;sensor_type;location;lat;lon;timestamp;P1;durP1;ratioP1;P2;durP2;ratioP2
79308;SDS011;68767;53.078;7.386;2023-05-07T00:01:57;51.78;;;24.45;;
79308;SDS011;68767;53.078;7.386;2023-05-07T00:04:24;55.75;;;25.45;;
79308;SDS011;68767;53.078;7.386;2023-05-07T00:06:51;48.35;;;23.70;;
79308;SDS011;68767;53.078;7.386;2023-05-07T00:09:18;54.10;;;25.38;;
79308;SDS011;68767;53.078;7.386;2023-05-07T00:11:45;58.53;;;26.50;;
79308;SDS011;68767;53.078;7.386;2023-05-07T00:14:12;59.83;;;27.33;;
79308;SDS011;68767;53.078;7.386;2023-05-07T00:16:39;56.75;;;24.95;;
79308;SDS011;68767;53.078;7.386;2023-05-07T00:19:06;57.53;;;25.75;;
79308;SDS011;68767;53.078;7.386;2023-05-07T00:21:33;57.47;;;27.20;;
79308;SDS011;68767;53.078;7.386;2023-05-07T00:24:00;55.85;;;25.70;;
79308;SDS011;68767;53.078;7.386;2023-05-07T00:26:27;57.17;;;26.23;;
79308;SDS011;68767;53.078;7.386;2023-05-07T00:28:55;61.20;;;27.83;;
79308;SDS011;68767;53.078;7.386;2023-05-07T00:31:21;54.47;;;26.27;;
79308;SDS011;68767;53.078;7.386;2023-05-07T00:33:48;59.15;;;25.90;;
79308;SDS011;68767;53.078;7.386;2023-05-07T00:36:15;56.75;;;23.67;;
79308;SDS011;68767;53.078;7.386;2023-05-07T00:38:42;58.10;;;26.45;;
79308;SDS011;68767;53.078;7.386;2023-05-07T00:41:09;58.90;;;26.35;;
79308;SDS011;68767;53.078;7.386;2023-05-07T00:43:36;57.17;;;26.45;;
79308;SDS011;68767;53.078;7.386;2023-05-07T00:46:04;55.55;;;25.00;;
79308;SDS011;68767;53.078;7.386;2023-05-07T00:48:31;60.80;;;24.67;;
79308;SDS011;68767;53.078;7.386;2023-05-07T00:50:59;58.88;;;24.40;;
79308;SDS011;68767;53.078;7.386;2023-05-07T00:53:26;51.83;;;22.50;;
79308;SDS011;68767;53.078;7.386;2023-05-07T00:55:55;54.53;;;23.75;;
79308;SDS011;68767;53.078;7.386;2023-05-07T00:58:25;59.45;;;25.70;;
79308;SDS011;68767;53.078;7.386;2023-05-07T01:00:53;52.03;;;23.23;;
79308;SDS011;68767;53.078;7.386;2023-05-07T01:03:20;46.65;;;22.55;;
79308;SDS011;68767;53.078;7.386;2023-05-07T01:05:48;64.20;;;25.98;;
79308;SDS011;68767;53.078;7.386;2023-05-07T01:08:17;56.70;;;25.13;;
79308;SDS011;68767;53.078;7.386;2023-05-07T01:10:44;57.08;;;25.65;;
79308;SDS011;68767;53.078;7.386;2023-05-07T01:13:13;62.70;;;26.52;;
79308;SDS011;68767;53.078;7.386;2023-05-07T01:15:42;59.40;;;24.00;;
79308;SDS011;68767;53.078;7.386;2023-05-07T01:18:09;55.20;;;25.40;;
79308;SDS011;68767;53.078;7.386;2023-05-07T01:20:37;52.95;;;23.58;;
79308;SDS011;68767;53.078;7.386;2023-05-07T01:23:04;57.80;;;24.40;;
79308;SDS011;68767;53.078;7.386;2023-05-07T01:25:33;61.47;;;24.98;;
79308;SDS011;68767;53.078;7.386;2023-05-07T01:28:01;54.78;;;24.83;;
79308;SDS011;68767;53.078;7.386;2023-05-07T01:30:32;47.17;;;20.70;;
79308;SDS011;68767;53.078;7.386;2023-05-07T01:33:04;62.28;;;25.30;;
79308;SDS011;68767;53.078;7.386;2023-05-07T01:35:37;61.50;;;27.05;;
79308;SDS011;68767;53.078;7.386;2023-05-07T01:38:07;59.10;;;24.33;;
79308;SDS011;68767;53.078;7.386;2023-05-07T01:40:34;57.80;;;25.70;;
79308;SDS011;68767;53.078;7.386;2023-05-07T01:43:04;60.53;;;25.42;;
79308;SDS011;68767;53.078;7.386;2023-05-07T01:45:38;56.13;;;23.92;;
79308;SDS011;68767;53.078;7.386;2023-05-07T01:48:07;54.30;;;25.83;;
79308;SDS011;68767;53.078;7.386;2023-05-07T01:50:36;55.90;;;26.00;;
79308;SDS011;68767;53.078;7.386;2023-05-07T01:53:03;62.67;;;27.20;;
79308;SDS011;68767;53.078;7.386;2023-05-07T01:55:30;64.97;;;27.27;;
79308;SDS011;68767;53.078;7.386;2023-05-07T01:57:57;63.20;;;27.83;;
79308;SDS011;68767;53.078;7.386;2023-05-07T02:00:24;77.93;;;29.80;;
79308;SDS011;68767;53.078;7.386;2023-05-07T02:02:51;60.00;;;25.95;;
79308;SDS011;68767;53.078;7.386;2023-05-07T02:05:31;67.18;;;28.58;;
79308;SDS011;68767;53.078;7.386;2023-05-07T02:08:21;71.38;;;28.77;;
79308;SDS011;68767;53.078;7.386;2023-05-07T02:10:48;73.93;;;29.83;;
79308;SDS011;68767;53.078;7.386;2023-05-07T02:13:16;69.97;;;29.80;;
79308;SDS011;68767;53.078;7.386;2023-05-07T02:15:43;72.15;;;29.02;;
79308;SDS011;68767;53.078;7.386;2023-05-07T02:18:13;68.95;;;28.38;;
79308;SDS011;68767;53.078;7.386;2023-05-07T02:20:40;64.32;;;26.50;;
79308;SDS011;68767;53.078;7.386;2023-05-07T02:23:07;62.42;;;28.83;;
79308;SDS011;68767;53.078;7.386;2023-05-07T02:25:34;65.70;;;26.98;;
79308;SDS011;68767;53.078;7.386;2023-05-07T02:28:01;67.32;;;28.33;;
79308;SDS011;68767;53.078;7.386;2023-05-07T02:30:47;57.33;;;25.80;;
79308;SDS011;68767;53.078;7.386;2023-05-07T02:33:14;59.40;;;26.13;;
79308;SDS011;68767;53.078;7.386;2023-05-07T02:35:41;52.67;;;23.88;;
79308;SDS011;68767;53.078;7.386;2023-05-07T02:38:10;62.95;;;26.83;;
79308;SDS011;68767;53.078;7.386;2023-05-07T02:40:38;61.92;;;26.80;;
79308;SDS011;68767;53.078;7.386;2023-05-07T02:43:06;56.15;;;25.13;;
79308;SDS011;68767;53.078;7.386;2023-05-07T02:45:33;52.83;;;24.10;;
79308;SDS011;68767;53.078;7.386;2023-05-07T02:48:02;56.20;;;25.88;;
79308;SDS011;68767;53.078;7.386;2023-05-07T02:50:29;52.58;;;23.60;;
79308;SDS011;68767;53.078;7.386;2023-05-07T02:52:56;54.55;;;25.90;;
79308;SDS011;68767;53.078;7.386;2023-05-07T02:55:22;56.83;;;25.88;;
79308;SDS011;68767;53.078;7.386;2023-05-07T02:57:49;59.63;;;25.13;;
79308;SDS011;68767;53.078;7.386;2023-05-07T03:00:18;57.20;;;25.38;;
79308;SDS011;68767;53.078;7.386;2023-05-07T03:02:56;54.17;;;23.40;;
79308;SDS011;68767;53.078;7.386;2023-05-07T03:05:23;52.70;;;24.15;;
79308;SDS011;68767;53.078;7.386;2023-05-07T03:07:49;55.20;;;24.17;;
79308;SDS011;68767;53.078;7.386;2023-05-07T03:10:16;53.53;;;24.13;;
79308;SDS011;68767;53.078;7.386;2023-05-07T03:15:15;44.97;;;22.17;;
79308;SDS011;68767;53.078;7.386;2023-05-07T03:17:43;48.58;;;22.20;;
79308;SDS011;68767;53.078;7.386;2023-05-07T03:20:10;49.58;;;23.67;;
79308;SDS011;68767;53.078;7.386;2023-05-07T03:22:39;52.83;;;23.77;;
79308;SDS011;68767;53.078;7.386;2023-05-07T03:25:07;62.25;;;26.08;;
79308;SDS011;68767;53.078;7.386;2023-05-07T03:27:35;65.55;;;28.02;;
79308;SDS011;68767;53.078;7.386;2023-05-07T03:30:02;60.13;;;26.65;;
79308;SDS011;68767;53.078;7.386;2023-05-07T03:32:29;55.20;;;25.00;;
79308;SDS011;68767;53.078;7.386;2023-05-07T03:34:56;52.25;;;24.23;;
79308;SDS011;68767;53.078;7.386;2023-05-07T03:37:23;52.38;;;25.20;;
79308;SDS011;68767;53.078;7.386;2023-05-07T03:39:50;54.08;;;24.55;;
79308;SDS011;68767;53.078;7.386;2023-05-07T03:42:18;55.55;;;23.98;;
79308;SDS011;68767;53.078;7.386;2023-05-07T03:44:48;67.20;;;27.83;;
79308;SDS011;68767;53.078;7.386;2023-05-07T03:47:15;60.78;;;27.58;;
79308;SDS011;68767;53.078;7.386;2023-05-07T03:49:43;60.70;;;27.55;;
79308;SDS011;68767;53.078;7.386;2023-05-07T03:52:11;57.63;;;26.25;;
79308;SDS011;68767;53.078;7.386;2023-05-07T03:54:38;53.55;;;25.00;;
79308;SDS011;68767;53.078;7.386;2023-05-07T03:57:05;59.20;;;27.15;;
79308;SDS011;68767;53.078;7.386;2023-05-07T03:59:32;51.58;;;24.85;;
79308;SDS011;68767;53.078;7.386;2023-05-07T04:01:59;54.97;;;22.83;;
79308;SDS011;68767;53.078;7.386;2023-05-07T04:04:30;48.65;;;21.45;;
79308;SDS011;68767;53.078;7.386;2023-05-07T04:07:00;69.70;;;29.48;;
79308;SDS011;68767;53.078;7.386;2023-05-07T04:09:28;56.17;;;23.90;;
79308;SDS011;68767;53.078;7.386;2023-05-07T04:11:56;57.88;;;25.85;;
79308;SDS011;68767;53.078;7.386;2023-05-07T04:14:23;56.22;;;26.42;;
79308;SDS011;68767;53.078;7.386;2023-05-07T04:16:51;60.10;;;27.35;;
79308;SDS011;68767;53.078;7.386;2023-05-07T04:19:18;66.82;;;28.00;;
79308;SDS011;68767;53.078;7.386;2023-05-07T04:21:49;57.95;;;27.63;;
79308;SDS011;68767;53.078;7.386;2023-05-07T04:24:16;60.72;;;26.35;;
79308;SDS011;68767;53.078;7.386;2023-05-07T04:26:46;66.32;;;28.88;;
79308;SDS011;68767;53.078;7.386;2023-05-07T04:29:13;63.50;;;28.02;;
79308;SDS011;68767;53.078;7.386;2023-05-07T04:31:40;64.55;;;26.58;;
79308;SDS011;68767;53.078;7.386;2023-05-07T04:34:07;52.35;;;25.85;;
79308;SDS011;68767;53.078;7.386;2023-05-07T04:36:35;58.13;;;25.17;;
79308;SDS011;68767;53.078;7.386;2023-05-07T04:39:08;49.92;;;22.55;;
79308;SDS011;68767;53.078;7.386;2023-05-07T04:41:35;50.53;;;25.20;;
79308;SDS011;68767;53.078;7.386;2023-05-07T04:44:04;54.63;;;27.23;;
79308;SDS011;68767;53.078;7.386;2023-05-07T04:46:33;51.78;;;23.65;;
79308;SDS011;68767;53.078;7.386;2023-05-07T04:49:01;55.58;;;25.50;;
79308;SDS011;68767;53.078;7.386;2023-05-07T04:51:28;52.47;;;24.77;;
79308;SDS011;68767;53.078;7.386;2023-05-07T04:53:55;48.90;;;23.08;;
79308;SDS011;68767;53.078;7.386;2023-05-07T04:56:23;48.95;;;22.77;;
79308;SDS011;68767;53.078;7.386;2023-05-07T04:58:50;45.53;;;20.83;;
79308;SDS011;68767;53.078;7.386;2023-05-07T05:01:19;48.97;;;20.92;;
79308;SDS011;68767;53.078;7.386;2023-05-07T05:03:47;40.60;;;19.33;;
79308;SDS011;68767;53.078;7.386;2023-05-07T05:06:16;43.10;;;18.80;;
79308;SDS011;68767;53.078;7.386;2023-05-07T05:08:43;52.17;;;21.63;;
79308;SDS011;68767;53.078;7.386;2023-05-07T05:11:10;42.38;;;18.92;;
79308;SDS011;68767;53.078;7.386;2023-05-07T05:13:37;46.10;;;21.48;;
79308;SDS011;68767;53.078;7.386;2023-05-07T05:16:10;35.63;;;15.98;;
79308;SDS011;68767;53.078;7.386;2023-05-07T05:18:38;47.63;;;21.25;;
79308;SDS011;68767;53.078;7.386;2023-05-07T05:21:07;46.45;;;21.25;;
79308;SDS011;68767;53.078;7.386;2023-05-07T05:23:35;34.65;;;15.90;;
79308;SDS011;68767;53.078;7.386;2023-05-07T05:26:02;43.25;;;20.05;;
79308;SDS011;68767;53.078;7.386;2023-05-07T05:28:31;48.28;;;20.73;;
79308;SDS011;68767;53.078;7.386;2023-05-07T05:30:58;47.00;;;18.85;;
79308;SDS011;68767;53.078;7.386;2023-05-07T05:33:29;44.63;;;20.60;;
79308;SDS011;68767;53.078;7.386;2023-05-07T05:36:01;41.97;;;18.95;;
79308;SDS011;68767;53.078;7.386;2023-05-07T05:38:28;42.90;;;19.00;;
79308;SDS011;68767;53.078;7.386;2023-05-07T05:40:55;47.67;;;19.80;;
79308;SDS011;68767;53.078;7.386;2023-05-07T05:43:22;48.03;;;19.88;;
79308;SDS011;68767;53.078;7.386;2023-05-07T05:45:49;41.17;;;19.13;;
79308;SDS011;68767;53.078;7.386;2023-05-07T05:48:17;40.30;;;16.08;;
79308;SDS011;68767;53.078;7.386;2023-05-07T05:50:44;39.63;;;17.67;;
79308;SDS011;68767;53.078;7.386;2023-05-07T05:53:12;50.78;;;20.30;;
79308;SDS011;68767;53.078;7.386;2023-05-07T05:55:39;44.85;;;20.55;;
79308;SDS011;68767;53.078;7.386;2023-05-07T05:58:06;41.33;;;19.48;;
79308;SDS011;68767;53.078;7.386;2023-05-07T06:00:37;45.50;;;19.42;;
79308;SDS011;68767;53.078;7.386;2023-05-07T06:03:05;47.55;;;22.33;;
79308;SDS011;68767;53.078;7.386;2023-05-07T06:05:33;51.08;;;22.60;;
79308;SDS011;68767;53.078;7.386;2023-05-07T06:08:00;47.90;;;23.00;;
79308;SDS011;68767;53.078;7.386;2023-05-07T06:10:31;47.28;;;22.00;;
79308;SDS011;68767;53.078;7.386;2023-05-07T06:12:59;43.67;;;20.35;;
79308;SDS011;68767;53.078;7.386;2023-05-07T06:15:26;49.58;;;22.75;;
79308;SDS011;68767;53.078;7.386;2023-05-07T06:17:53;45.40;;;20.70;;
79308;SDS011;68767;53.078;7.386;2023-05-07T06:20:22;40.47;;;19.27;;
79308;SDS011;68767;53.078;7.386;2023-05-07T06:22:50;40.10;;;18.65;;
79308;SDS011;68767;53.078;7.386;2023-05-07T06:25:17;42.00;;;19.77;;
79308;SDS011;68767;53.078;7.386;2023-05-07T06:27:44;40.42;;;18.10;;
79308;SDS011;68767;53.078;7.386;2023-05-07T06:30:11;41.72;;;18.33;;
79308;SDS011;68767;53.078;7.386;2023-05-07T06:32:39;45.15;;;19.75;;
79308;SDS011;68767;53.078;7.386;2023-05-07T06:35:08;40.90;;;18.83;;
79308;SDS011;68767;53.078;7.386;2023-05-07T06:37:37;40.42;;;19.27;;
79308;SDS011;68767;53.078;7.386;2023-05-07T06:40:07;43.22;;;19.27;;
79308;SDS011;68767;53.078;7.386;2023-05-07T06:42:37;41.65;;;17.38;;
79308;SDS011;68767;53.078;7.386;2023-05-07T06:45:24;40.17;;;18.85;;
79308;SDS011;68767;53.078;7.386;2023-05-07T06:47:53;36.45;;;16.88;;
79308;SDS011;68767;53.078;7.386;2023-05-07T06:50:22;44.38;;;19.77;;
79308;SDS011;68767;53.078;7.386;2023-05-07T06:52:51;37.20;;;17.88;;
79308;SDS011;68767;53.078;7.386;2023-05-07T06:55:18;40.65;;;18.20;;
79308;SDS011;68767;53.078;7.386;2023-05-07T06:57:46;43.80;;;17.98;;
79308;SDS011;68767;53.078;7.386;2023-05-07T07:00:14;42.95;;;18.90;;
79308;SDS011;68767;53.078;7.386;2023-05-07T07:02:47;42.78;;;19.70;;
79308;SDS011;68767;53.078;7.386;2023-05-07T07:05:18;36.65;;;16.27;;
79308;SDS011;68767;53.078;7.386;2023-05-07T07:07:45;40.58;;;18.73;;
79308;SDS011;68767;53.078;7.386;2023-05-07T07:10:20;42.65;;;19.55;;
79308;SDS011;68767;53.078;7.386;2023-05-07T07:12:48;40.05;;;18.30;;
79308;SDS011;68767;53.078;7.386;2023-05-07T07:15:16;39.45;;;17.63;;
79308;SDS011;68767;53.078;7.386;2023-05-07T07:17:44;32.38;;;16.25;;
79308;SDS011;68767;53.078;7.386;2023-05-07T07:20:11;40.47;;;17.48;;
79308;SDS011;68767;53.078;7.386;2023-05-07T07:22:39;43.60;;;19.70;;
79308;SDS011;68767;53.078;7.386;2023-05-07T07:25:06;37.85;;;18.15;;
79308;SDS011;68767;53.078;7.386;2023-05-07T07:27:36;37.00;;;19.35;;
79308;SDS011;68767;53.078;7.386;2023-05-07T07:30:04;32.67;;;15.98;;
79308;SDS011;68767;53.078;7.386;2023-05-07T07:32:34;35.35;;;16.95;;
79308;SDS011;68767;53.078;7.386;2023-05-07T07:35:01;43.42;;;17.58;;
79308;SDS011;68767;53.078;7.386;2023-05-07T07:37:29;34.03;;;15.07;;
79308;SDS011;68767;53.078;7.386;2023-05-07T07:39:56;38.75;;;18.05;;
79308;SDS011;68767;53.078;7.386;2023-05-07T07:42:24;32.92;;;16.73;;
79308;SDS011;68767;53.078;7.386;2023-05-07T07:44:51;38.08;;;16.13;;
79308;SDS011;68767;53.078;7.386;2023-05-07T07:49:49;30.58;;;14.02;;
79308;SDS011;68767;53.078;7.386;2023-05-07T07:52:17;33.53;;;15.70;;
79308;SDS011;68767;53.078;7.386;2023-05-07T07:54:45;32.20;;;14.68;;
79308;SDS011;68767;53.078;7.386;2023-05-07T07:57:12;36.72;;;17.92;;
79308;SDS011;68767;53.078;7.386;2023-05-07T07:59:40;34.70;;;15.38;;
79308;SDS011;68767;53.078;7.386;2023-05-07T08:02:10;33.88;;;16.05;;
79308;SDS011;68767;53.078;7.386;2023-05-07T08:04:38;29.23;;;13.85;;
79308;SDS011;68767;53.078;7.386;2023-05-07T08:07:06;33.92;;;16.25;;
79308;SDS011;68767;53.078;7.386;2023-05-07T08:09:37;29.85;;;13.93;;
79308;SDS011;68767;53.078;7.386;2023-05-07T08:12:05;31.42;;;15.07;;
79308;SDS011;68767;53.078;7.386;2023-05-07T08:14:33;29.65;;;13.88;;
79308;SDS011;68767;53.078;7.386;2023-05-07T08:17:01;30.02;;;15.70;;
79308;SDS011;68767;53.078;7.386;2023-05-07T08:19:28;24.55;;;11.90;;
79308;SDS011;68767;53.078;7.386;2023-05-07T08:21:55;30.20;;;13.68;;
79308;SDS011;68767;53.078;7.386;2023-05-07T08:24:24;25.15;;;11.88;;
79308;SDS011;68767;53.078;7.386;2023-05-07T08:26:51;29.48;;;14.57;;
79308;SDS011;68767;53.078;7.386;2023-05-07T08:29:19;24.23;;;13.35;;
79308;SDS011;68767;53.078;7.386;2023-05-07T08:31:46;29.35;;;13.80;;
79308;SDS011;68767;53.078;7.386;2023-05-07T08:34:13;26.48;;;12.88;;
79308;SDS011;68767;53.078;7.386;2023-05-07T08:36:43;29.23;;;14.40;;
79308;SDS011;68767;53.078;7.386;2023-05-07T08:39:17;22.98;;;12.32;;
79308;SDS011;68767;53.078;7.386;2023-05-07T08:41:47;24.40;;;12.20;;
79308;SDS011;68767;53.078;7.386;2023-05-07T08:44:15;23.17;;;11.75;;
79308;SDS011;68767;53.078;7.386;2023-05-07T08:46:45;18.88;;;9.35;;
79308;SDS011;68767;53.078;7.386;2023-05-07T08:49:16;21.92;;;11.32;;
79308;SDS011;68767;53.078;7.386;2023-05-07T08:51:44;21.48;;;11.60;;
79308;SDS011;68767;53.078;7.386;2023-05-07T08:54:14;15.98;;;8.95;;
79308;SDS011;68767;53.078;7.386;2023-05-07T08:56:43;21.75;;;11.95;;
79308;SDS011;68767;53.078;7.386;2023-05-07T08:59:10;18.58;;;9.95;;
79308;SDS011;68767;53.078;7.386;2023-05-07T09:01:37;18.92;;;10.73;;
79308;SDS011;68767;53.078;7.386;2023-05-07T09:04:05;21.15;;;10.65;;
79308;SDS011;68767;53.078;7.386;2023-05-07T09:06:34;43.65;;;19.85;;
79308;SDS011;68767;53.078;7.386;2023-05-07T09:09:01;35.53;;;17.70;;
79308;SDS011;68767;53.078;7.386;2023-05-07T09:11:29;23.77;;;11.75;;
79308;SDS011;68767;53.078;7.386;2023-05-07T09:14:00;21.95;;;11.60;;
79308;SDS011;68767;53.078;7.386;2023-05-07T09:16:33;23.00;;;10.15;;
79308;SDS011;68767;53.078;7.386;2023-05-07T09:19:00;20.70;;;10.85;;
79308;SDS011;68767;53.078;7.386;2023-05-07T09:21:28;21.17;;;10.77;;
79308;SDS011;68767;53.078;7.386;2023-05-07T09:23:57;18.80;;;11.07;;
79308;SDS011;68767;53.078;7.386;2023-05-07T09:26:32;31.30;;;15.77;;
79308;SDS011;68767;53.078;7.386;2023-05-07T09:29:05;17.05;;;10.13;;
79308;SDS011;68767;53.078;7.386;2023-05-07T09:31:35;22.23;;;10.55;;
79308;SDS011;68767;53.078;7.386;2023-05-07T09:34:05;18.15;;;10.43;;
79308;SDS011;68767;53.078;7.386;2023-05-07T09:36:34;18.70;;;9.85;;
79308;SDS011;68767;53.078;7.386;2023-05-07T09:39:02;23.27;;;10.10;;
79308;SDS011;68767;53.078;7.386;2023-05-07T09:41:30;17.30;;;8.55;;
79308;SDS011;68767;53.078;7.386;2023-05-07T09:44:08;16.80;;;10.13;;
79308;SDS011;68767;53.078;7.386;2023-05-07T09:46:44;17.30;;;9.68;;
79308;SDS011;68767;53.078;7.386;2023-05-07T09:49:22;17.02;;;9.48;;
79308;SDS011;68767;53.078;7.386;2023-05-07T09:51:57;16.65;;;9.23;;
79308;SDS011;68767;53.078;7.386;2023-05-07T09:54:29;17.67;;;10.23;;
79308;SDS011;68767;53.078;7.386;2023-05-07T09:56:57;17.88;;;10.60;;
79308;SDS011;68767;53.078;7.386;2023-05-07T09:59:28;17.73;;;9.95;;
79308;SDS011;68767;53.078;7.386;2023-05-07T10:02:00;17.73;;;10.32;;
79308;SDS011;68767;53.078;7.386;2023-05-07T10:04:33;15.23;;;9.20;;
79308;SDS011;68767;53.078;7.386;2023-05-07T10:07:01;19.50;;;10.43;;
79308;SDS011;68767;53.078;7.386;2023-05-07T10:09:31;19.65;;;11.02;;
79308;SDS011;68767;53.078;7.386;2023-05-07T10:11:59;20.70;;;9.90;;
79308;SDS011;68767;53.078;7.386;2023-05-07T10:14:28;18.52;;;9.88;;
79308;SDS011;68767;53.078;7.386;2023-05-07T10:16:59;19.00;;;10.68;;
79308;SDS011;68767;53.078;7.386;2023-05-07T10:19:29;18.13;;;10.50;;
79308;SDS011;68767;53.078;7.386;2023-05-07T10:21:59;15.95;;;9.25;;
79308;SDS011;68767;53.078;7.386;2023-05-07T10:24:39;15.07;;;9.10;;
79308;SDS011;68767;53.078;7.386;2023-05-07T10:27:12;16.50;;;10.10;;
79308;SDS011;68767;53.078;7.386;2023-05-07T10:34:57;19.23;;;10.40;;
79308;SDS011;68767;53.078;7.386;2023-05-07T10:37:28;19.35;;;12.13;;
79308;SDS011;68767;53.078;7.386;2023-05-07T10:39:56;17.38;;;10.05;;
79308;SDS011;68767;53.078;7.386;2023-05-07T10:44:55;15.52;;;8.95;;
79308;SDS011;68767;53.078;7.386;2023-05-07T10:47:26;15.68;;;10.02;;
79308;SDS011;68767;53.078;7.386;2023-05-07T10:52:30;16.98;;;10.65;;
79308;SDS011;68767;53.078;7.386;2023-05-07T11:01:21;16.65;;;10.48;;
79308;SDS011;68767;53.078;7.386;2023-05-07T11:04:18;18.02;;;10.50;;
79308;SDS011;68767;53.078;7.386;2023-05-07T11:07:24;18.25;;;9.68;;
79308;SDS011;68767;53.078;7.386;2023-05-07T11:09:56;19.25;;;10.45;;
79308;SDS011;68767;53.078;7.386;2023-05-07T11:15:37;16.75;;;11.05;;
79308;SDS011;68767;53.078;7.386;2023-05-07T11:18:16;16.15;;;9.82;;
79308;SDS011;68767;53.078;7.386;2023-05-07T11:26:24;14.10;;;8.70;;
79308;SDS011;68767;53.078;7.386;2023-05-07T11:28:52;16.45;;;9.38;;
79308;SDS011;68767;53.078;7.386;2023-05-07T11:31:26;16.05;;;9.68;;
79308;SDS011;68767;53.078;7.386;2023-05-07T11:33:57;13.98;;;8.85;;
79308;SDS011;68767;53.078;7.386;2023-05-07T11:36:25;15.25;;;8.98;;
79308;SDS011;68767;53.078;7.386;2023-05-07T11:38:58;13.90;;;9.10;;
79308;SDS011;68767;53.078;7.386;2023-05-07T11:41:35;13.40;;;8.05;;
79308;SDS011;68767;53.078;7.386;2023-05-07T11:44:05;12.88;;;7.88;;
79308;SDS011;68767;53.078;7.386;2023-05-07T11:46:32;15.18;;;8.60;;
79308;SDS011;68767;53.078;7.386;2023-05-07T11:49:00;19.70;;;8.27;;
79308;SDS011;68767;53.078;7.386;2023-05-07T11:51:27;14.43;;;8.93;;
79308;SDS011;68767;53.078;7.386;2023-05-07T11:53:54;15.45;;;8.70;;
79308;SDS011;68767;53.078;7.386;2023-05-07T11:56:21;18.17;;;8.35;;
79308;SDS011;68767;53.078;7.386;2023-05-07T11:58:48;11.98;;;6.93;;
79308;SDS011;68767;53.078;7.386;2023-05-07T12:01:16;14.07;;;8.48;;
79308;SDS011;68767;53.078;7.386;2023-05-07T12:03:43;13.38;;;7.55;;
79308;SDS011;68767;53.078;7.386;2023-05-07T12:06:15;13.55;;;8.40;;
79308;SDS011;68767;53.078;7.386;2023-05-07T12:08:43;17.25;;;10.68;;
79308;SDS011;68767;53.078;7.386;2023-05-07T12:11:21;12.35;;;7.38;;
79308;SDS011;68767;53.078;7.386;2023-05-07T12:13:50;18.52;;;11.25;;
79308;SDS011;68767;53.078;7.386;2023-05-07T12:16:17;10.27;;;7.05;;
79308;SDS011;68767;53.078;7.386;2023-05-07T12:18:45;11.90;;;6.95;;
79308;SDS011;68767;53.078;7.386;2023-05-07T12:21:13;12.48;;;7.47;;
79308;SDS011;68767;53.078;7.386;2023-05-07T12:23:40;10.52;;;7.22;;
79308;SDS011;68767;53.078;7.386;2023-05-07T12:26:07;10.30;;;6.82;;
79308;SDS011;68767;53.078;7.386;2023-05-07T12:28:38;12.55;;;7.25;;
79308;SDS011;68767;53.078;7.386;2023-05-07T12:31:06;12.05;;;7.05;;
79308;SDS011;68767;53.078;7.386;2023-05-07T12:33:34;13.07;;;7.35;;
79308;SDS011;68767;53.078;7.386;2023-05-07T12:36:03;11.02;;;7.30;;
79308;SDS011;68767;53.078;7.386;2023-05-07T12:38:37;9.63;;;6.40;;
79308;SDS011;68767;53.078;7.386;2023-05-07T12:41:05;12.55;;;7.72;;
79308;SDS011;68767;53.078;7.386;2023-05-07T12:43:33;12.02;;;7.38;;
79308;SDS011;68767;53.078;7.386;2023-05-07T12:46:02;11.70;;;7.35;;
79308;SDS011;68767;53.078;7.386;2023-05-07T12:48:31;13.55;;;7.43;;
79308;SDS011;68767;53.078;7.386;2023-05-07T12:51:01;10.18;;;6.97;;
79308;SDS011;68767;53.078;7.386;2023-05-07T12:53:29;9.20;;;5.88;;
79308;SDS011;68767;53.078;7.386;2023-05-07T12:55:58;10.85;;;7.10;;
79308;SDS011;68767;53.078;7.386;2023-05-07T12:58:27;11.65;;;8.00;;
79308;SDS011;68767;53.078;7.386;2023-05-07T13:00:55;11.60;;;7.78;;
79308;SDS011;68767;53.078;7.386;2023-05-07T13:03:30;11.73;;;6.93;;
79308;SDS011;68767;53.078;7.386;2023-05-07T13:06:00;10.70;;;7.20;;
79308;SDS011;68767;53.078;7.386;2023-05-07T13:08:35;12.40;;;7.68;;
79308;SDS011;68767;53.078;7.386;2023-05-07T13:11:04;10.23;;;7.25;;
79308;SDS011;68767;53.078;7.386;2023-05-07T13:13:32;13.07;;;7.35;;
79308;SDS011;68767;53.078;7.386;2023-05-07T13:16:03;13.45;;;8.30;;
79308;SDS011;68767;53.078;7.386;2023-05-07T13:18:32;12.27;;;8.38;;
79308;SDS011;68767;53.078;7.386;2023-05-07T13:21:00;13.77;;;8.27;;
79308;SDS011;68767;53.078;7.386;2023-05-07T13:23:29;11.73;;;8.20;;
79308;SDS011;68767;53.078;7.386;2023-05-07T13:25:56;21.05;;;12.75;;
79308;SDS011;68767;53.078;7.386;2023-05-07T13:28:23;14.18;;;8.55;;
79308;SDS011;68767;53.078;7.386;2023-05-07T13:30:51;11.55;;;8.07;;
79308;SDS011;68767;53.078;7.386;2023-05-07T13:33:18;13.93;;;8.05;;
79308;SDS011;68767;53.078;7.386;2023-05-07T13:35:45;12.60;;;8.40;;
79308;SDS011;68767;53.078;7.386;2023-05-07T13:38:12;12.23;;;8.27;;
79308;SDS011;68767;53.078;7.386;2023-05-07T13:40:39;10.38;;;7.60;;
79308;SDS011;68767;53.078;7.386;2023-05-07T13:43:06;11.02;;;8.10;;
79308;SDS011;68767;53.078;7.386;2023-05-07T13:45:34;11.48;;;7.97;;
79308;SDS011;68767;53.078;7.386;2023-05-07T13:48:01;11.85;;;8.70;;
79308;SDS011;68767;53.078;7.386;2023-05-07T13:50:28;10.45;;;7.78;;
79308;SDS011;68767;53.078;7.386;2023-05-07T13:52:56;12.95;;;8.50;;
79308;SDS011;68767;53.078;7.386;2023-05-07T13:55:23;12.75;;;8.07;;
79308;SDS011;68767;53.078;7.386;2023-05-07T13:57:58;14.07;;;9.25;;
79308;SDS011;68767;53.078;7.386;2023-05-07T14:00:26;14.95;;;9.57;;
79308;SDS011;68767;53.078;7.386;2023-05-07T14:02:54;13.57;;;9.75;;
79308;SDS011;68767;53.078;7.386;2023-05-07T14:05:22;12.13;;;8.68;;
79308;SDS011;68767;53.078;7.386;2023-05-07T14:07:50;16.48;;;10.13;;
79308;SDS011;68767;53.078;7.386;2023-05-07T14:10:18;14.18;;;8.75;;
79308;SDS011;68767;53.078;7.386;2023-05-07T14:12:46;12.15;;;8.95;;
79308;SDS011;68767;53.078;7.386;2023-05-07T14:15:14;16.70;;;9.75;;
79308;SDS011;68767;53.078;7.386;2023-05-07T14:17:42;16.08;;;9.63;;
79308;SDS011;68767;53.078;7.386;2023-05-07T14:20:11;13.13;;;8.52;;
79308;SDS011;68767;53.078;7.386;2023-05-07T14:22:39;13.07;;;9.32;;
79308;SDS011;68767;53.078;7.386;2023-05-07T14:25:06;14.27;;;8.05;;
79308;SDS011;68767;53.078;7.386;2023-05-07T14:27:33;13.05;;;8.05;;
79308;SDS011;68767;53.078;7.386;2023-05-07T14:30:00;10.30;;;7.25;;
79308;SDS011;68767;53.078;7.386;2023-05-07T14:32:27;11.00;;;7.57;;
79308;SDS011;68767;53.078;7.386;2023-05-07T14:34:54;10.82;;;7.22;;
79308;SDS011;68767;53.078;7.386;2023-05-07T14:37:21;15.75;;;8.27;;
79308;SDS011;68767;53.078;7.386;2023-05-07T14:39:48;11.90;;;8.07;;
79308;SDS011;68767;53.078;7.386;2023-05-07T14:42:16;12.65;;;7.80;;
79308;SDS011;68767;53.078;7.386;2023-05-07T14:44:44;12.45;;;7.95;;
79308;SDS011;68767;53.078;7.386;2023-05-07T14:47:12;12.85;;;8.15;;
79308;SDS011;68767;53.078;7.386;2023-05-07T14:49:40;11.57;;;7.68;;
79308;SDS011;68767;53.078;7.386;2023-05-07T14:52:07;13.00;;;8.52;;
79308;SDS011;68767;53.078;7.386;2023-05-07T14:54:37;13.75;;;8.38;;
79308;SDS011;68767;53.078;7.386;2023-05-07T14:57:05;10.68;;;7.32;;
79308;SDS011;68767;53.078;7.386;2023-05-07T14:59:33;13.65;;;8.05;;
79308;SDS011;68767;53.078;7.386;2023-05-07T15:02:00;12.43;;;8.27;;
79308;SDS011;68767;53.078;7.386;2023-05-07T15:04:31;9.18;;;6.68;;
79308;SDS011;68767;53.078;7.386;2023-05-07T15:06:58;11.52;;;7.25;;